Time;durP1;ratioP1;P1;durP2;ratioP2;P2;SDS_P1;SDS_P2;PMS_P1;PMS_P2;Temp;Humidity;BMP_temperature;BMP_pressure;BME280_temperature;BME280_humidity;BME280_pressure;Samples;Min_cycle;Max_cycle;Signal;HPM_P1;HPM_P2
2023/03/16 00:00:47;;;;;;;9.00;4.10;;;;;;;-143.48;57.75;118439.88;5053154;28;20048;-67
2023/03/16 00:03:19;;;;;;;7.00;4.20;;;;;;;-143.48;57.46;118439.88;5051930;28;20034;-67
2023/03/16 00:05:49;;;;;;;8.75;4.30;;;;;;;-143.48;58.00;118439.88;5053105;28;20025;-68
2023/03/16 00:08:16;;;;;;;7.97;4.30;;;;;;;-143.48;58.05;118439.88;5051960;28;20029;-68
2023/03/16 00:10:45;;;;;;;8.32;4.05;;;;;;;-143.48;58.29;118439.88;5053321;28;20105;-67
2023/03/16 00:13:15;;;;;;;8.80;4.45;;;;;;;-143.48;58.84;118439.88;5051860;28;20033;-67
2023/03/16 00:15:48;;;;;;;11.48;4.55;;;;;;;-143.48;58.87;118439.88;5051938;28;20115;-68
2023/03/16 00:18:13;;;;;;;11.55;4.90;;;;;;;-143.48;58.93;118439.88;5053183;28;20032;-67
2023/03/16 00:20:38;;;;;;;11.88;4.35;;;;;;;-143.48;59.09;118439.88;5053337;28;20100;-67
2023/03/16 00:23:04;;;;;;;10.15;4.55;;;;;;;-143.48;59.25;118439.88;5053315;28;20029;-67
2023/03/16 00:25:32;;;;;;;9.50;4.10;;;;;;;-143.48;59.63;118439.88;5057134;28;20052;-69
2023/03/16 00:27:57;;;;;;;8.20;4.30;;;;;;;-143.48;60.35;118439.88;5057223;28;20101;-68
2023/03/16 00:30:23;;;;;;;7.88;4.55;;;;;;;-143.48;60.09;118439.88;5057139;28;20032;-66
2023/03/16 00:32:48;;;;;;;7.53;4.68;;;;;;;-143.48;60.27;118439.88;5056996;28;20028;-68
2023/03/16 00:35:13;;;;;;;15.00;4.65;;;;;;;-143.48;60.56;118439.88;5056923;28;20119;-67
2023/03/16 00:37:39;;;;;;;8.65;4.70;;;;;;;-143.48;60.69;118439.88;5056913;28;20473;-68
2023/03/16 00:40:06;;;;;;;7.68;4.53;;;;;;;-143.48;61.22;118439.88;5055733;28;20032;-67
2023/03/16 00:42:33;;;;;;;10.15;4.55;;;;;;;-143.48;61.34;118439.88;5056825;28;20024;-67
2023/03/16 00:45:00;;;;;;;8.32;4.70;;;;;;;-143.48;61.85;118439.88;5057089;28;20021;-68
2023/03/16 00:47:28;;;;;;;9.13;5.07;;;;;;;-143.48;61.94;118439.88;5055443;28;20021;-67
2023/03/16 00:49:54;;;;;;;6.75;4.90;;;;;;;-143.48;62.01;118439.88;5055470;28;20028;-68
2023/03/16 00:52:22;;;;;;;8.60;4.60;;;;;;;-143.48;62.04;118439.88;5056856;28;20025;-68
2023/03/16 00:54:48;;;;;;;10.40;5.20;;;;;;;-143.48;62.37;118439.88;5056565;28;20052;-67
2023/03/16 00:57:17;;;;;;;9.27;4.90;;;;;;;-143.48;62.58;118439.88;5056568;28;20025;-68
2023/03/16 00:59:43;;;;;;;7.95;4.68;;;;;;;-143.48;62.64;118439.88;5056605;28;20021;-67
2023/03/16 01:02:09;;;;;;;7.50;4.78;;;;;;;-143.48;63.02;118439.88;5056773;28;20071;-68
2023/03/16 01:04:35;;;;;;;9.30;4.70;;;;;;;-143.48;62.98;118439.88;5056591;28;20124;-68
2023/03/16 01:07:04;;;;;;;8.88;5.07;;;;;;;-143.48;63.27;118439.88;5056302;28;20155;-68
2023/03/16 01:09:35;;;;;;;12.95;5.22;;;;;;;-143.48;63.75;118439.88;5055077;28;20037;-67
2023/03/16 01:12:04;;;;;;;8.15;5.32;;;;;;;-143.48;63.88;118439.88;5056304;28;20109;-67
2023/03/16 01:14:29;;;;;;;12.07;5.10;;;;;;;-143.48;64.02;118439.88;5054945;28;20040;-68
2023/03/16 01:16:54;;;;;;;10.60;4.78;;;;;;;-143.48;64.22;118439.88;5056363;28;20380;-67
2023/03/16 01:19:21;;;;;;;10.13;5.28;;;;;;;-143.48;64.39;118439.88;5054701;28;20028;-67
2023/03/16 01:21:47;;;;;;;7.95;5.00;;;;;;;-143.48;64.43;118439.88;5054947;28;20033;-67
2023/03/16 01:24:12;;;;;;;8.60;5.22;;;;;;;-143.48;64.30;118439.88;5056061;28;20432;-67
2023/03/16 01:26:38;;;;;;;8.98;5.20;;;;;;;-143.48;64.79;118439.88;5054681;28;20053;-68
2023/03/16 01:29:04;;;;;;;7.82;5.07;;;;;;;-143.48;64.86;118439.88;5056017;28;20029;-68
2023/03/16 01:31:30;;;;;;;7.82;4.55;;;;;;;-143.48;65.26;118439.88;5054833;28;20047;-66
2023/03/16 01:33:56;;;;;;;10.60;5.25;;;;;;;-143.48;65.81;118439.88;5055907;28;20059;-66
2023/03/16 01:36:21;;;;;;;9.45;5.30;;;;;;;-143.48;65.79;118439.88;5054887;28;20380;-68
2023/03/16 01:38:46;;;;;;;7.45;4.90;;;;;;;-143.48;65.43;118439.88;5055927;28;20383;-68
2023/03/16 01:41:13;;;;;;;8.10;5.00;;;;;;;-143.48;65.61;118439.88;5055653;28;20074;-68
2023/03/16 01:43:40;;;;;;;11.50;5.40;;;;;;;-143.48;65.64;118439.88;5055675;28;20060;-66
2023/03/16 01:46:05;;;;;;;8.52;5.22;;;;;;;-143.48;65.56;118439.88;5054387;28;20032;-68
2023/03/16 01:48:36;;;;;;;9.07;5.00;;;;;;;-143.48;65.85;118439.88;5054920;28;20376;-69
2023/03/16 01:51:06;;;;;;;10.35;5.32;;;;;;;-143.48;66.15;118439.88;5055649;28;20032;-68
2023/03/16 01:53:32;;;;;;;10.00;5.00;;;;;;;-143.48;65.56;118439.88;5054326;28;20025;-68
2023/03/16 01:56:02;;;;;;;9.43;5.20;;;;;;;-143.48;66.03;118439.88;5055608;28;20389;-68
2023/03/16 01:58:29;;;;;;;9.57;5.50;;;;;;;-143.48;65.75;118439.88;5055547;28;20384;-67
2023/03/16 02:00:56;;;;;;;9.50;5.20;;;;;;;-143.48;66.77;118439.88;5055341;28;20044;-68
2023/03/16 02:03:22;;;;;;;10.65;5.30;;;;;;;-143.48;66.41;118439.88;5055401;28;20025;-68
2023/03/16 02:05:55;;;;;;;8.38;5.20;;;;;;;-143.48;66.90;118439.88;5054894;28;20039;-67
2023/03/16 02:08:21;;;;;;;11.07;5.18;;;;;;;-143.48;67.40;118439.88;5053489;28;20475;-68
2023/03/16 02:10:47;;;;;;;8.95;5.55;;;;;;;-143.48;67.41;118439.88;5055400;28;20404;-67
2023/03/16 02:13:13;;;;;;;10.98;5.45;;;;;;;-143.48;67.38;118439.88;5055308;28;20028;-69
2023/03/16 02:15:39;;;;;;;8.70;4.97;;;;;;;-143.48;67.80;118439.88;5054327;28;20029;-66
2023/03/16 02:18:06;;;;;;;9.18;4.85;;;;;;;-143.48;68.80;118439.88;5054995;28;20491;-66
2023/03/16 02:20:55;;;;;;;11.32;5.63;;;;;;;-143.48;67.96;118439.88;5055178;28;20075;-67
2023/03/16 02:23:23;;;;;;;9.63;5.60;;;;;;;-143.48;68.87;118439.88;5055159;28;20032;-67
2023/03/16 02:26:09;;;;;;;9.70;5.07;;;;;;;-143.48;68.80;118439.88;5055030;28;20024;-68
2023/03/16 02:28:47;;;;;;;9.93;5.03;;;;;;;-143.48;68.69;118439.88;5055025;28;20151;-67
2023/03/16 02:31:14;;;;;;;11.52;5.13;;;;;;;-143.48;68.61;118439.88;5054956;28;20017;-68
2023/03/16 02:33:41;;;;;;;7.90;5.03;;;;;;;-143.48;68.67;118439.88;5053610;28;20035;-68
2023/03/16 02:36:07;;;;;;;10.95;5.20;;;;;;;-143.48;68.61;118439.88;5054799;28;20029;-68
2023/03/16 02:38:32;;;;;;;7.13;4.80;;;;;;;-143.48;69.33;118439.88;5054691;28;20031;-68
2023/03/16 02:41:08;;;;;;;9.63;4.90;;;;;;;-143.48;69.22;118439.88;5054570;28;20029;-68
2023/03/16 02:43:37;;;;;;;9.82;4.97;;;;;;;-143.48;69.38;118439.88;5054561;28;20021;-68
2023/03/16 02:46:03;;;;;;;7.65;4.95;;;;;;;-143.48;70.13;118439.88;5054766;28;20037;-67
2023/03/16 02:48:41;;;;;;;9.23;5.20;;;;;;;-143.48;70.39;118439.88;5053043;28;20021;-68
2023/03/16 02:51:07;;;;;;;11.70;5.47;;;;;;;-143.48;71.10;118439.88;5053925;28;20047;-67
2023/03/16 02:53:32;;;;;;;8.57;5.20;;;;;;;-143.48;71.64;118439.88;5054681;28;20021;-68
2023/03/16 02:55:57;;;;;;;9.05;5.43;;;;;;;-143.48;71.66;118439.88;5053059;28;20032;-68
2023/03/16 02:58:23;;;;;;;11.05;5.22;;;;;;;-143.48;71.81;118439.88;5054286;28;20028;-68
2023/03/16 03:00:48;;;;;;;9.32;4.97;;;;;;;-143.48;72.35;118439.88;5054543;28;20408;-68
2023/03/16 03:03:13;;;;;;;7.38;4.68;;;;;;;-143.48;72.69;118439.88;5053031;28;20028;-68
2023/03/16 03:05:39;;;;;;;8.57;5.15;;;;;;;-143.48;73.46;118439.88;5054430;28;20048;-67
2023/03/16 03:08:05;;;;;;;8.13;5.25;;;;;;;-143.48;73.12;118439.88;5054338;28;20021;-67
2023/03/16 03:10:31;;;;;;;11.02;5.28;;;;;;;-143.48;73.66;118439.88;5054167;28;20028;-67
2023/03/16 03:12:56;;;;;;;10.02;5.65;;;;;;;-143.48;74.04;118439.88;5054302;28;20054;-67
2023/03/16 03:15:22;;;;;;;9.18;5.53;;;;;;;-143.48;74.40;118439.88;5052777;28;20057;-68
2023/03/16 03:17:48;;;;;;;7.40;5.13;;;;;;;-143.48;75.41;118439.88;5054013;28;20107;-68
2023/03/16 03:20:15;;;;;;;12.82;5.32;;;;;;;-143.48;75.12;118439.88;5054095;28;20110;-68
2023/03/16 03:22:41;;;;;;;10.05;5.07;;;;;;;-143.48;75.22;118439.88;5052594;28;20427;-68
2023/03/16 03:25:07;;;;;;;10.20;5.88;;;;;;;-143.48;75.34;118439.88;5052486;28;20020;-67
2023/03/16 03:27:33;;;;;;;9.90;5.43;;;;;;;-143.48;75.86;118439.88;5052397;28;20029;-67
2023/03/16 03:29:58;;;;;;;10.38;5.05;;;;;;;-143.48;76.54;118439.88;5053873;28;20036;-68
2023/03/16 03:32:24;;;;;;;13.00;5.68;;;;;;;-143.48;76.80;118439.88;5052383;28;20124;-68
2023/03/16 03:34:49;;;;;;;7.53;4.95;;;;;;;-143.48;77.22;118439.88;5053687;28;20029;-67
2023/03/16 03:37:15;;;;;;;14.80;6.15;;;;;;;-143.48;78.09;118439.88;5053620;28;20021;-67
2023/03/16 03:39:40;;;;;;;11.13;5.63;;;;;;;-143.48;78.26;118439.88;5053372;28;20578;-67
2023/03/16 03:42:06;;;;;;;8.25;5.63;;;;;;;-143.48;79.12;118439.88;5052205;28;20025;-67
2023/03/16 03:44:33;;;;;;;14.40;5.50;;;;;;;-143.48;78.99;118439.88;5052222;28;20119;-68
2023/03/16 03:46:59;;;;;;;12.20;5.57;;;;;;;-143.48;79.27;118439.88;5053413;28;20041;-67
2023/03/16 03:49:24;;;;;;;8.35;4.72;;;;;;;-143.48;79.95;118439.88;5053434;28;20438;-67
2023/03/16 03:51:50;;;;;;;9.32;5.40;;;;;;;-143.48;80.40;118439.88;5053460;28;20036;-68
2023/03/16 03:54:15;;;;;;;11.38;5.43;;;;;;;-143.48;80.84;118439.88;5053485;28;20412;-68
2023/03/16 03:56:41;;;;;;;11.35;5.53;;;;;;;-143.48;81.24;118439.88;5053247;28;20024;-69
2023/03/16 03:59:06;;;;;;;10.93;5.50;;;;;;;-143.48;82.22;118439.88;5053004;28;20029;-67
2023/03/16 04:01:31;;;;;;;10.93;5.45;;;;;;;-143.48;83.03;118439.88;5053281;28;20049;-67
2023/03/16 04:03:57;;;;;;;11.27;5.65;;;;;;;-143.48;83.16;118439.88;5052000;28;20530;-67
2023/03/16 04:06:22;;;;;;;8.75;5.45;;;;;;;-143.48;83.06;118439.88;5053066;28;20586;-67
2023/03/16 04:08:48;;;;;;;9.18;5.68;;;;;;;-143.48;84.08;118439.88;5051809;28;20036;-68
2023/03/16 04:11:13;;;;;;;8.38;5.57;;;;;;;-143.48;84.40;118439.88;5053277;28;20096;-67
2023/03/16 04:13:38;;;;;;;11.85;5.32;;;;;;;-143.48;84.60;118439.88;5053327;28;20131;-68
2023/03/16 04:16:04;;;;;;;10.25;5.35;;;;;;;-143.48;84.63;118439.88;5051910;28;20475;-67
2023/03/16 04:18:49;;;;;;;12.10;5.80;;;;;;;-143.48;84.11;118439.88;5053047;28;20117;-67
2023/03/16 04:21:16;;;;;;;8.52;5.45;;;;;;;-143.48;85.17;118439.88;5051916;28;20057;-67
2023/03/16 04:23:42;;;;;;;12.15;6.10;;;;;;;-143.48;85.35;118439.88;5051745;28;20499;-67
2023/03/16 04:26:07;;;;;;;8.63;5.40;;;;;;;-143.48;84.35;118439.88;5051573;28;20029;-67
2023/03/16 04:28:33;;;;;;;10.93;5.47;;;;;;;-143.48;85.10;118439.88;5053038;28;20025;-66
2023/03/16 04:31:04;;;;;;;10.68;5.47;;;;;;;-143.48;85.51;118439.88;5052932;28;20044;-67
2023/03/16 04:33:31;;;;;;;10.88;5.40;;;;;;;-143.48;85.03;118439.88;5051701;28;20020;-67
2023/03/16 04:35:56;;;;;;;10.20;5.85;;;;;;;-143.48;84.97;118439.88;5052899;28;20029;-67
2023/03/16 04:38:22;;;;;;;10.85;5.65;;;;;;;-143.48;85.52;118439.88;5053062;28;20027;-67
2023/03/16 04:40:47;;;;;;;10.82;5.47;;;;;;;-143.48;84.79;118439.88;5051772;28;20542;-68
2023/03/16 04:43:13;;;;;;;9.15;5.43;;;;;;;-143.48;84.34;118439.88;5052776;28;20036;-67
2023/03/16 04:45:38;;;;;;;9.32;5.47;;;;;;;-143.48;85.07;118439.88;5052916;28;20032;-67
2023/03/16 04:48:04;;;;;;;11.43;5.20;;;;;;;-143.48;85.69;118439.88;5052869;28;20057;-67
2023/03/16 04:50:29;;;;;;;8.80;5.28;;;;;;;-143.48;85.25;118439.88;5052809;28;20104;-67
2023/03/16 04:52:55;;;;;;;11.20;5.72;;;;;;;-143.48;84.97;118439.88;5051518;28;20025;-68
2023/03/16 04:55:21;;;;;;;11.35;5.72;;;;;;;-143.48;85.06;118439.88;5052755;28;20076;-67
2023/03/16 04:57:47;;;;;;;12.98;5.28;;;;;;;-143.48;84.98;118439.88;5052728;28;20069;-66
2023/03/16 05:00:19;;;;;;;11.40;5.32;;;;;;;-143.48;84.70;118439.88;5052612;28;20111;-66
2023/03/16 05:02:46;;;;;;;9.10;5.60;;;;;;;-143.48;84.64;118439.88;5052729;28;20025;-66
2023/03/16 05:05:11;;;;;;;8.68;5.00;;;;;;;-143.48;84.84;118439.88;5051415;28;20385;-67
2023/03/16 05:07:36;;;;;;;9.70;5.20;;;;;;;-143.48;84.80;118439.88;5052662;28;20026;-66
2023/03/16 05:10:02;;;;;;;11.88;5.43;;;;;;;-143.48;84.27;118439.88;5052855;28;20029;-68
2023/03/16 05:12:27;;;;;;;10.93;5.15;;;;;;;-143.48;83.94;118439.88;5056251;28;20130;-67
2023/03/16 05:14:53;;;;;;;10.30;5.32;;;;;;;-143.48;83.88;118439.88;5055086;28;20468;-67
2023/03/16 05:17:18;;;;;;;8.30;5.13;;;;;;;-143.48;84.79;118439.88;5056139;28;20115;-68
2023/03/16 05:19:44;;;;;;;8.20;5.00;;;;;;;-143.48;84.34;118439.88;5056159;28;20112;-67
2023/03/16 05:22:09;;;;;;;8.63;5.00;;;;;;;-143.48;84.32;118439.88;5056044;28;20028;-67
2023/03/16 05:24:36;;;;;;;9.40;5.43;;;;;;;-143.48;83.94;118439.88;5054874;28;20028;-67
2023/03/16 05:27:02;;;;;;;10.30;5.15;;;;;;;-143.48;84.24;118439.88;5068642;28;20052;-67
2023/03/16 05:29:28;;;;;;;7.00;4.78;;;;;;;-143.48;84.22;118439.88;5056917;28;20025;-68
2023/03/16 05:31:53;;;;;;;7.95;5.00;;;;;;;-143.48;84.54;118439.88;5055333;28;20061;-67
2023/03/16 05:34:18;;;;;;;8.18;4.93;;;;;;;-143.48;84.21;118439.88;5056427;28;20028;-67
2023/03/16 05:36:44;;;;;;;10.60;5.18;;;;;;;-143.48;85.39;118439.88;5056932;28;20021;-68
2023/03/16 05:39:09;;;;;;;9.45;4.95;;;;;;;-143.48;85.18;118439.88;5056567;28;20507;-68
2023/03/16 05:41:35;;;;;;;12.32;5.15;;;;;;;-143.48;85.80;118439.88;5057553;28;20025;-66
2023/03/16 05:44:01;;;;;;;12.52;4.80;;;;;;;-143.48;85.83;118439.88;5056104;28;20475;-67
2023/03/16 05:46:26;;;;;;;13.27;4.82;;;;;;;-143.48;86.97;118439.88;5056126;28;20025;-67
2023/03/16 05:48:51;;;;;;;9.93;5.10;;;;;;;-143.48;86.58;118439.88;5056022;28;20025;-67
2023/03/16 05:51:17;;;;;;;8.65;4.70;;;;;;;-143.48;86.87;118439.88;5055832;28;20033;-69
2023/03/16 05:53:45;;;;;;;10.20;5.38;;;;;;;-143.48;87.27;118439.88;5054336;28;20033;-68
2023/03/16 05:56:11;;;;;;;9.75;4.70;;;;;;;-143.48;87.32;118439.88;5053985;28;20067;-67
2023/03/16 05:58:36;;;;;;;10.23;5.22;;;;;;;-143.48;87.59;118439.88;5054146;28;20036;-68
2023/03/16 06:01:03;;;;;;;7.97;5.03;;;;;;;-143.48;87.47;118439.88;5054998;28;20145;-66
2023/03/16 06:03:28;;;;;;;8.65;4.88;;;;;;;-143.48;87.92;118439.88;5056669;28;20085;-68
2023/03/16 06:05:54;;;;;;;13.23;4.50;;;;;;;-143.48;87.98;118439.88;5057497;28;20067;-67
2023/03/16 06:08:19;;;;;;;10.27;4.97;;;;;;;-143.48;88.35;118439.88;5054674;28;20040;-67
2023/03/16 06:10:47;;;;;;;11.20;4.95;;;;;;;-143.48;87.66;118439.88;5055222;28;20052;-67
2023/03/16 06:13:13;;;;;;;9.38;4.85;;;;;;;-143.48;88.29;118439.88;5055346;28;20025;-67
2023/03/16 06:15:39;;;;;;;8.50;4.90;;;;;;;-143.48;88.01;118439.88;5053533;28;20178;-67
2023/03/16 06:18:04;;;;;;;9.38;4.88;;;;;;;-143.48;87.94;118439.88;5054949;28;20028;-68
2023/03/16 06:20:29;;;;;;;8.57;4.80;;;;;;;-143.48;87.54;118439.88;5055010;28;20032;-67
2023/03/16 06:22:55;;;;;;;9.48;4.90;;;;;;;-143.48;87.15;118439.88;5054871;28;20096;-67
2023/03/16 06:25:20;;;;;;;9.52;4.70;;;;;;;-143.48;87.33;118439.88;5053580;28;20060;-66
2023/03/16 06:27:46;;;;;;;10.88;4.60;;;;;;;-143.48;86.97;118439.88;5054651;28;20017;-66
2023/03/16 06:30:12;;;;;;;9.10;4.25;;;;;;;-143.48;87.01;118439.88;5055401;28;20025;-67
2023/03/16 06:32:41;;;;;;;12.10;4.65;;;;;;;-143.48;87.98;118439.88;5053432;28;20033;-66
2023/03/16 06:35:08;;;;;;;7.90;4.93;;;;;;;-143.48;87.26;118439.88;5054901;28;20109;-67
2023/03/16 06:37:34;;;;;;;8.50;4.57;;;;;;;-143.48;87.58;118439.88;5054491;28;20031;-67
2023/03/16 06:39:59;;;;;;;8.80;4.53;;;;;;;-143.48;87.88;118439.88;5055011;28;20024;-66
2023/03/16 06:42:24;;;;;;;9.80;4.68;;;;;;;-143.48;87.30;118439.88;5054460;28;20024;-66
2023/03/16 06:44:51;;;;;;;9.55;4.47;;;;;;;-143.48;87.35;118439.88;5054373;28;20045;-65
2023/03/16 06:47:17;;;;;;;9.13;4.78;;;;;;;-143.48;88.13;118439.88;5054333;28;20366;-68
2023/03/16 06:49:42;;;;;;;12.48;4.15;;;;;;;-143.48;87.66;118439.88;5054244;28;20028;-66
2023/03/16 06:52:09;;;;;;;8.00;4.40;;;;;;;-143.48;88.33;118439.88;5054481;28;20111;-66
2023/03/16 06:54:36;;;;;;;8.88;3.92;;;;;;;-143.48;87.94;118439.88;5054232;28;20025;-67
2023/03/16 06:57:01;;;;;;;7.65;4.18;;;;;;;-143.48;87.78;118439.88;5052745;28;20384;-68
2023/03/16 06:59:27;;;;;;;22.17;4.28;;;;;;;-143.48;87.47;118439.88;5054278;28;20025;-68
2023/03/16 07:01:52;;;;;;;9.23;4.30;;;;;;;-143.48;87.57;118439.88;5053795;28;20523;-66
2023/03/16 07:04:17;;;;;;;7.00;4.10;;;;;;;-143.48;87.39;118439.88;5054144;28;20472;-66
2023/03/16 07:06:43;;;;;;;7.60;3.90;;;;;;;-143.48;87.15;118439.88;5053595;28;20061;-67
2023/03/16 07:09:08;;;;;;;6.00;3.38;;;;;;;-143.48;86.54;118439.88;5054030;28;20025;-68
2023/03/16 07:11:34;;;;;;;9.73;3.70;;;;;;;-143.48;86.89;118439.88;5054065;28;20056;-67
2023/03/16 07:14:00;;;;;;;8.60;4.00;;;;;;;-143.48;86.56;118439.88;5054002;28;20036;-68
2023/03/16 07:16:26;;;;;;;9.20;3.78;;;;;;;-143.48;86.75;118439.88;5052765;28;20056;-67
2023/03/16 07:18:51;;;;;;;6.15;3.83;;;;;;;-143.48;86.18;118439.88;5053698;28;20037;-66
2023/03/16 07:21:17;;;;;;;7.93;3.60;;;;;;;-143.48;85.26;118439.88;5054979;28;20476;-68
2023/03/16 07:23:43;;;;;;;8.70;3.97;;;;;;;-143.48;85.55;118439.88;5055181;28;20074;-67
2023/03/16 07:26:10;;;;;;;6.95;3.65;;;;;;;-143.48;85.54;118439.88;5054005;28;20025;-67
2023/03/16 07:28:37;;;;;;;8.60;3.58;;;;;;;-143.48;85.61;118439.88;5054091;28;20032;-67
2023/03/16 07:31:03;;;;;;;6.63;3.60;;;;;;;-143.48;85.01;118439.88;5054261;28;20027;-67
2023/03/16 07:33:29;;;;;;;6.05;3.42;;;;;;;-143.48;85.30;118439.88;5051749;28;20450;-67
2023/03/16 07:35:54;;;;;;;9.95;3.45;;;;;;;-143.48;85.43;118439.88;5053580;28;20048;-67
2023/03/16 07:38:20;;;;;;;11.07;4.10;;;;;;;-143.48;85.57;118439.88;5053287;28;20029;-67
2023/03/16 07:40:46;;;;;;;8.68;4.25;;;;;;;-143.48;85.78;118439.88;5052368;28;20032;-66
2023/03/16 07:43:12;;;;;;;7.80;4.00;;;;;;;-143.48;86.27;118439.88;5055089;28;20025;-66
2023/03/16 07:45:37;;;;;;;6.38;3.80;;;;;;;-143.48;86.55;118439.88;5054597;28;20081;-67
2023/03/16 07:48:02;;;;;;;8.70;3.60;;;;;;;-143.48;84.46;118439.88;5053668;28;20082;-66
2023/03/16 07:50:28;;;;;;;9.02;3.70;;;;;;;-143.48;84.45;118439.88;5054057;28;20021;-66
2023/03/16 07:52:53;;;;;;;7.90;3.55;;;;;;;-143.48;85.95;118439.88;5054144;28;20503;-67
2023/03/16 07:55:18;;;;;;;7.35;3.90;;;;;;;-143.48;86.06;118439.88;5054613;28;20020;-67
2023/03/16 07:57:46;;;;;;;10.80;4.30;;;;;;;-143.48;85.97;118439.88;5052625;28;20050;-66
2023/03/16 08:00:13;;;;;;;6.47;3.85;;;;;;;-143.48;85.86;118439.88;5053592;28;20083;-66
2023/03/16 08:02:39;;;;;;;7.88;3.67;;;;;;;-143.48;85.97;118439.88;5053496;28;20055;-67
2023/03/16 08:05:04;;;;;;;13.15;4.10;;;;;;;-143.48;84.46;118439.88;5052521;28;20025;-66
2023/03/16 08:07:30;;;;;;;6.80;3.17;;;;;;;-143.48;83.82;118439.88;5065663;28;20379;-67
2023/03/16 08:09:56;;;;;;;9.52;3.75;;;;;;;-143.48;84.41;118439.88;5057888;28;20021;-67
2023/03/16 08:12:21;;;;;;;9.48;3.53;;;;;;;-143.48;84.39;118439.88;5053368;28;20032;-66
2023/03/16 08:14:47;;;;;;;7.07;4.03;;;;;;;-143.48;83.16;118439.88;5054074;28;20033;-68
2023/03/16 08:17:12;;;;;;;9.88;3.72;;;;;;;-143.48;83.06;118439.88;5053558;28;20021;-66
2023/03/16 08:19:37;;;;;;;8.48;3.53;;;;;;;-143.48;82.17;118439.88;5053779;28;20032;-65
2023/03/16 08:22:04;;;;;;;7.72;3.60;;;;;;;-143.48;82.80;118439.88;5054306;28;20056;-67
2023/03/16 08:24:30;;;;;;;5.68;3.70;;;;;;;-143.48;82.26;118439.88;5051848;28;20107;-67
2023/03/16 08:26:57;;;;;;;7.43;3.67;;;;;;;-143.48;81.97;118439.88;5054939;28;20028;-66
2023/03/16 08:29:23;;;;;;;7.85;4.28;;;;;;;-143.48;81.11;118439.88;5053360;28;20384;-65
2023/03/16 08:31:49;;;;;;;12.10;4.20;;;;;;;-143.48;81.81;118439.88;5053606;28;20028;-66
2023/03/16 08:34:14;;;;;;;5.95;3.17;;;;;;;-143.48;80.38;118439.88;5052351;28;20388;-66
2023/03/16 08:36:42;;;;;;;8.05;3.67;;;;;;;-143.48;80.31;118439.88;5053633;28;20090;-66
2023/03/16 08:39:08;;;;;;;7.90;4.20;;;;;;;-143.48;78.82;118439.88;5053186;28;20025;-66
2023/03/16 08:41:33;;;;;;;6.68;3.70;;;;;;;-143.48;79.40;118439.88;5051689;28;20404;-66
2023/03/16 08:43:59;;;;;;;6.72;3.30;;;;;;;-143.48;76.39;118439.88;5053392;28;20495;-66
2023/03/16 08:46:25;;;;;;;7.03;3.50;;;;;;;-143.48;76.75;118439.88;5056086;28;20028;-66
2023/03/16 08:48:51;;;;;;;5.80;3.17;;;;;;;-143.48;77.14;118439.88;5056161;28;20051;-66
2023/03/16 08:51:17;;;;;;;6.25;3.10;;;;;;;-143.48;75.75;118439.88;5057257;28;20025;-66
2023/03/16 08:53:43;;;;;;;6.22;3.17;;;;;;;-143.48;75.20;118439.88;5057114;28;20051;-68
2023/03/16 08:56:11;;;;;;;6.72;3.42;;;;;;;-143.48;75.13;118439.88;5057262;28;20534;-66
2023/03/16 08:58:37;;;;;;;9.95;3.40;;;;;;;-143.48;75.09;118439.88;5065829;28;20029;-65
2023/03/16 09:01:08;;;;;;;8.68;3.35;;;;;;;-143.48;74.27;118439.88;5056817;28;20040;-66
2023/03/16 09:03:34;;;;;;;5.60;2.95;;;;;;;-143.48;72.25;118439.88;5058308;28;20484;-67
2023/03/16 09:06:05;;;;;;;9.90;3.58;;;;;;;-143.48;73.22;118439.88;5056164;28;20032;-65
2023/03/16 09:08:30;;;;;;;8.52;3.50;;;;;;;-143.48;72.29;118439.88;5055104;28;20400;-67
2023/03/16 09:11:08;;;;;;;5.82;3.03;;;;;;;-143.48;72.37;118439.88;5066678;28;20017;-66
2023/03/16 09:13:34;;;;;;;8.30;3.08;;;;;;;-143.48;72.06;118439.88;5054953;28;20032;-66
2023/03/16 09:16:00;;;;;;;6.43;3.53;;;;;;;-143.48;71.82;118439.88;5056155;28;20028;-66
2023/03/16 09:18:26;;;;;;;6.93;3.42;;;;;;;-143.48;71.92;118439.88;5056236;28;20024;-68
2023/03/16 09:21:00;;;;;;;6.97;3.25;;;;;;;-143.48;71.26;118439.88;5054817;28;20484;-65
2023/03/16 09:23:27;;;;;;;8.98;3.63;;;;;;;-143.48;71.37;118439.88;5054842;28;20079;-66
2023/03/16 09:25:56;;;;;;;5.47;3.60;;;;;;;-143.48;71.12;118439.88;5056045;28;20017;-65
2023/03/16 09:28:22;;;;;;;7.50;3.60;;;;;;;-143.48;70.71;118439.88;5054338;28;20036;-66
2023/03/16 09:30:49;;;;;;;9.55;3.38;;;;;;;-143.48;70.20;118439.88;5054875;28;20388;-67
2023/03/16 09:33:14;;;;;;;7.70;3.55;;;;;;;-143.48;70.18;118439.88;5054121;28;20449;-66
2023/03/16 09:35:39;;;;;;;5.63;3.17;;;;;;;-143.48;69.36;118439.88;5054457;28;20112;-67
2023/03/16 09:38:06;;;;;;;6.53;3.55;;;;;;;-143.48;68.83;118439.88;5054463;28;20108;-65
2023/03/16 09:40:32;;;;;;;7.25;3.70;;;;;;;-143.48;68.29;118439.88;5055782;28;20029;-66
2023/03/16 09:43:25;;;;;;;8.43;3.53;;;;;;;-143.48;67.82;118439.88;5054838;28;20029;-65
2023/03/16 09:46:16;;;;;;;6.35;3.50;;;;;;;-143.48;66.23;118439.88;5055228;28;20032;-66
2023/03/16 09:48:41;;;;;;;10.23;3.45;;;;;;;-143.48;63.50;118439.88;5055698;28;20037;-66
2023/03/16 09:51:17;;;;;;;5.00;3.60;;;;;;;-143.48;63.12;118439.88;5055794;28;20032;-65
2023/03/16 09:53:45;;;;;;;10.75;4.30;;;;;;;-143.48;60.36;118439.88;5055584;28;20504;-66
2023/03/16 09:56:20;;;;;;;6.95;3.80;;;;;;;-143.48;55.54;118439.88;5053547;28;20502;-66
2023/03/16 09:58:46;;;;;;;7.38;3.50;;;;;;;-143.48;54.06;118439.88;5055539;28;20024;-66
2023/03/16 10:01:36;;;;;;;6.07;3.35;;;;;;;-143.48;55.41;118439.88;5055657;28;20045;-66
2023/03/16 10:04:05;;;;;;;17.58;4.55;;;;;;;-143.48;57.54;118439.88;5055367;28;20132;-66
2023/03/16 10:06:31;;;;;;;6.28;3.42;;;;;;;-143.48;59.19;118439.88;5055566;28;20029;-67
2023/03/16 10:09:22;;;;;;;8.48;3.45;;;;;;;-143.48;59.01;118439.88;5055731;28;20059;-67
2023/03/16 10:11:53;;;;;;;6.63;3.13;;;;;;;-143.48;59.16;118439.88;5054542;28;20132;-66
2023/03/16 10:14:45;;;;;;;6.55;3.90;;;;;;;-143.48;58.65;118439.88;5055404;28;20400;-67
2023/03/16 10:17:43;;;;;;;6.78;3.53;;;;;;;-143.48;58.98;118439.88;5055109;28;20028;-67
2023/03/16 10:20:19;;;;;;;6.05;3.35;;;;;;;-143.48;56.96;118439.88;5043003;28;20140;-68
2023/03/16 10:22:46;;;;;;;6.85;3.55;;;;;;;-143.48;56.54;118439.88;5053705;28;20052;-67
2023/03/16 10:25:14;;;;;;;6.47;3.40;;;;;;;-143.48;55.37;118439.88;5055021;28;20021;-66
2023/03/16 10:27:43;;;;;;;7.80;3.35;;;;;;;-143.48;56.02;118439.88;5055066;28;20484;-67
2023/03/16 10:30:23;;;;;;;8.55;3.30;;;;;;;-143.48;55.08;118439.88;5053853;28;20032;-66
2023/03/16 10:32:49;;;;;;;7.18;3.28;;;;;;;-143.48;55.46;118439.88;5053759;28;20050;-67
2023/03/16 10:35:42;;;;;;;7.90;3.53;;;;;;;-143.48;54.37;118439.88;5055310;28;20499;-67
2023/03/16 10:38:08;;;;;;;7.45;3.20;;;;;;;-143.48;54.15;118439.88;5053656;28;20056;-66
2023/03/16 10:40:38;;;;;;;6.50;3.38;;;;;;;-143.48;54.80;118439.88;5054717;28;20099;-66
2023/03/16 10:43:12;;;;;;;8.10;3.20;;;;;;;-143.48;53.44;118439.88;5054445;28;20036;-66
2023/03/16 10:45:37;;;;;;;6.22;3.00;;;;;;;-143.48;52.13;118439.88;5052486;28;20479;-67
2023/03/16 10:48:20;;;;;;;6.78;3.05;;;;;;;-143.48;53.47;118439.88;5054454;28;20049;-66
2023/03/16 10:50:53;;;;;;;8.63;3.00;;;;;;;-143.48;53.31;118439.88;5052983;28;20056;-66
2023/03/16 10:53:28;;;;;;;5.60;2.97;;;;;;;-143.48;52.88;118439.88;5053425;28;20025;-70
2023/03/16 10:56:00;;;;;;;8.35;3.00;;;;;;;-143.48;53.58;118439.88;5053050;28;20480;-67
2023/03/16 10:58:29;;;;;;;6.50;3.20;;;;;;;-143.48;53.76;118439.88;5054358;28;20017;-67
2023/03/16 11:00:55;;;;;;;7.95;3.15;;;;;;;-143.48;53.78;118439.88;5052792;28;20111;-67
2023/03/16 11:03:26;;;;;;;7.95;3.30;;;;;;;-143.48;53.41;118439.88;5053117;28;20032;-66
2023/03/16 11:06:02;;;;;;;5.80;2.85;;;;;;;-143.48;54.15;118439.88;5052968;28;20021;-66
2023/03/16 11:08:37;;;;;;;8.23;2.72;;;;;;;-143.48;54.34;118439.88;5053167;28;20477;-66